sensor_id;sensor_type;location;lat;lon;timestamp;pressure;altitude;pressure_sealevel;temperature;humidity
72909;BME280;61051;62.624;17.950;2023-12-22T00:00:40;97707.16;;;-0.89;97.61
72909;BME280;61051;62.624;17.950;2023-12-22T00:03:08;97711.51;;;-0.86;97.03
72909;BME280;61051;62.624;17.950;2023-12-22T00:05:37;97710.75;;;-0.78;97.26
72909;BME280;61051;62.624;17.950;2023-12-22T00:08:06;97708.75;;;-0.88;96.84
72909;BME280;61051;62.624;17.950;2023-12-22T00:10:34;97710.50;;;-0.78;96.69
72909;BME280;61051;62.624;17.950;2023-12-22T00:13:03;97711.57;;;-0.76;96.01
72909;BME280;61051;62.624;17.950;2023-12-22T00:15:31;97713.70;;;-0.77;96.59
72909;BME280;61051;62.624;17.950;2023-12-22T00:18:00;97714.73;;;-0.84;96.17
72909;BME280;61051;62.624;17.950;2023-12-22T00:20:29;97720.51;;;-0.78;95.63
72909;BME280;61051;62.624;17.950;2023-12-22T00:22:58;97722.09;;;-0.83;96.05
72909;BME280;61051;62.624;17.950;2023-12-22T00:25:26;97721.73;;;-0.99;95.71
72909;BME280;61051;62.624;17.950;2023-12-22T00:27:55;97723.08;;;-0.90;95.37
72909;BME280;61051;62.624;17.950;2023-12-22T00:30:23;97723.06;;;-1.06;96.12
72909;BME280;61051;62.624;17.950;2023-12-22T00:32:52;97727.81;;;-1.00;95.70
72909;BME280;61051;62.624;17.950;2023-12-22T00:35:21;97729.39;;;-0.98;96.12
72909;BME280;61051;62.624;17.950;2023-12-22T00:37:49;97730.31;;;-1.07;96.26
72909;BME280;61051;62.624;17.950;2023-12-22T00:40:18;97728.53;;;-1.09;96.17
72909;BME280;61051;62.624;17.950;2023-12-22T00:42:47;97727.80;;;-1.05;95.95
72909;BME280;61051;62.624;17.950;2023-12-22T00:45:16;97728.60;;;-1.03;95.69
72909;BME280;61051;62.624;17.950;2023-12-22T00:47:46;97730.94;;;-1.11;95.87
72909;BME280;61051;62.624;17.950;2023-12-22T00:50:15;97728.58;;;-1.07;96.18
72909;BME280;61051;62.624;17.950;2023-12-22T00:52:45;97727.37;;;-1.11;96.71
72909;BME280;61051;62.624;17.950;2023-12-22T00:55:13;97729.20;;;-1.30;97.15
72909;BME280;61051;62.624;17.950;2023-12-22T00:57:42;97731.57;;;-1.10;97.30
72909;BME280;61051;62.624;17.950;2023-12-22T01:00:11;97735.52;;;-1.08;97.64
72909;BME280;61051;62.624;17.950;2023-12-22T01:02:41;97736.69;;;-1.12;97.19
72909;BME280;61051;62.624;17.950;2023-12-22T01:05:10;97748.99;;;-1.14;97.78
72909;BME280;61051;62.624;17.950;2023-12-22T01:07:38;97747.59;;;-1.23;96.93
72909;BME280;61051;62.624;17.950;2023-12-22T01:10:08;97754.67;;;-1.23;97.35
72909;BME280;61051;62.624;17.950;2023-12-22T01:12:37;97757.57;;;-1.25;97.43
72909;BME280;61051;62.624;17.950;2023-12-22T01:15:07;97754.11;;;-1.24;97.63
72909;BME280;61051;62.624;17.950;2023-12-22T01:17:36;97752.27;;;-1.29;96.91
72909;BME280;61051;62.624;17.950;2023-12-22T01:20:05;97758.73;;;-1.18;96.95
72909;BME280;61051;62.624;17.950;2023-12-22T01:22:35;97757.88;;;-1.27;97.40
72909;BME280;61051;62.624;17.950;2023-12-22T01:25:05;97761.09;;;-1.27;97.30
72909;BME280;61051;62.624;17.950;2023-12-22T01:27:33;97760.72;;;-1.18;97.09
72909;BME280;61051;62.624;17.950;2023-12-22T01:30:02;97763.47;;;-1.23;97.57
72909;BME280;61051;62.624;17.950;2023-12-22T01:32:30;97764.28;;;-1.29;97.61
72909;BME280;61051;62.624;17.950;2023-12-22T01:34:59;97770.72;;;-1.22;97.35
72909;BME280;61051;62.624;17.950;2023-12-22T01:37:28;97778.80;;;-1.23;97.71
72909;BME280;61051;62.624;17.950;2023-12-22T01:39:57;97779.11;;;-1.22;97.39
72909;BME280;61051;62.624;17.950;2023-12-22T01:42:25;97777.35;;;-1.29;97.59
72909;BME280;61051;62.624;17.950;2023-12-22T01:44:54;97782.83;;;-1.20;97.51
72909;BME280;61051;62.624;17.950;2023-12-22T01:47:23;97782.64;;;-1.18;98.19
72909;BME280;61051;62.624;17.950;2023-12-22T01:49:52;97781.12;;;-1.21;98.08
72909;BME280;61051;62.624;17.950;2023-12-22T01:52:20;97779.54;;;-1.15;97.52
72909;BME280;61051;62.624;17.950;2023-12-22T01:54:49;97783.03;;;-1.19;97.03
72909;BME280;61051;62.624;17.950;2023-12-22T01:57:19;97779.70;;;-1.30;97.91
72909;BME280;61051;62.624;17.950;2023-12-22T01:59:48;97783.69;;;-1.37;98.39
72909;BME280;61051;62.624;17.950;2023-12-22T02:02:18;97784.83;;;-1.34;98.69
72909;BME280;61051;62.624;17.950;2023-12-22T02:04:47;97787.53;;;-1.25;98.74
72909;BME280;61051;62.624;17.950;2023-12-22T02:07:17;97793.55;;;-1.19;99.05
72909;BME280;61051;62.624;17.950;2023-12-22T02:09:46;97788.89;;;-1.14;98.20
72909;BME280;61051;62.624;17.950;2023-12-22T02:12:15;97790.23;;;-1.15;97.85
72909;BME280;61051;62.624;17.950;2023-12-22T02:14:45;97791.70;;;-1.11;98.01
72909;BME280;61051;62.624;17.950;2023-12-22T02:17:20;97789.52;;;-1.28;98.57
72909;BME280;61051;62.624;17.950;2023-12-22T02:19:51;97790.21;;;-1.14;98.25
72909;BME280;61051;62.624;17.950;2023-12-22T02:22:21;97789.54;;;-1.26;97.46
72909;BME280;61051;62.624;17.950;2023-12-22T02:24:50;97789.34;;;-1.37;97.74
72909;BME280;61051;62.624;17.950;2023-12-22T02:27:27;97793.99;;;-1.31;98.19
72909;BME280;61051;62.624;17.950;2023-12-22T02:30:01;97797.45;;;-1.32;97.86
72909;BME280;61051;62.624;17.950;2023-12-22T02:32:35;97796.21;;;-1.17;97.38
72909;BME280;61051;62.624;17.950;2023-12-22T02:35:08;97797.96;;;-1.28;96.65
72909;BME280;61051;62.624;17.950;2023-12-22T02:37:39;97805.06;;;-1.26;96.93
72909;BME280;61051;62.624;17.950;2023-12-22T02:40:10;97805.61;;;-1.35;96.92
72909;BME280;61051;62.624;17.950;2023-12-22T02:42:40;97805.33;;;-1.27;97.65
72909;BME280;61051;62.624;17.950;2023-12-22T02:45:13;97807.75;;;-1.41;98.03
72909;BME280;61051;62.624;17.950;2023-12-22T02:47:44;97804.78;;;-1.37;98.55
72909;BME280;61051;62.624;17.950;2023-12-22T02:50:14;97810.36;;;-1.31;99.03
72909;BME280;61051;62.624;17.950;2023-12-22T02:52:44;97810.76;;;-1.27;97.95
72909;BME280;61051;62.624;17.950;2023-12-22T02:55:14;97803.12;;;-1.38;98.18
72909;BME280;61051;62.624;17.950;2023-12-22T02:57:43;97808.43;;;-1.31;97.96
72909;BME280;61051;62.624;17.950;2023-12-22T03:00:12;97806.92;;;-1.40;97.74
72909;BME280;61051;62.624;17.950;2023-12-22T03:02:40;97811.01;;;-1.38;97.50
72909;BME280;61051;62.624;17.950;2023-12-22T03:05:09;97809.71;;;-1.43;98.16
72909;BME280;61051;62.624;17.950;2023-12-22T03:07:38;97807.54;;;-1.43;97.92
72909;BME280;61051;62.624;17.950;2023-12-22T03:10:07;97815.64;;;-1.49;98.96
72909;BME280;61051;62.624;17.950;2023-12-22T03:12:35;97810.47;;;-1.53;99.01
72909;BME280;61051;62.624;17.950;2023-12-22T03:15:05;97810.93;;;-1.52;99.07
72909;BME280;61051;62.624;17.950;2023-12-22T03:17:34;97817.96;;;-1.48;99.40
72909;BME280;61051;62.624;17.950;2023-12-22T03:20:03;97823.85;;;-1.56;99.49
72909;BME280;61051;62.624;17.950;2023-12-22T03:22:31;97820.02;;;-1.42;98.92
72909;BME280;61051;62.624;17.950;2023-12-22T03:25:00;97825.27;;;-1.43;98.83
72909;BME280;61051;62.624;17.950;2023-12-22T03:27:28;97816.70;;;-1.54;99.03
72909;BME280;61051;62.624;17.950;2023-12-22T03:29:57;97825.23;;;-1.55;99.10
72909;BME280;61051;62.624;17.950;2023-12-22T03:32:26;97829.62;;;-1.58;98.64
72909;BME280;61051;62.624;17.950;2023-12-22T03:34:54;97827.29;;;-1.71;98.01
72909;BME280;61051;62.624;17.950;2023-12-22T03:37:23;97828.62;;;-1.99;98.04
72909;BME280;61051;62.624;17.950;2023-12-22T03:39:51;97835.74;;;-1.87;98.20
72909;BME280;61051;62.624;17.950;2023-12-22T03:42:20;97834.69;;;-1.91;98.15
72909;BME280;61051;62.624;17.950;2023-12-22T03:44:48;97835.75;;;-1.95;98.14
72909;BME280;61051;62.624;17.950;2023-12-22T03:47:18;97838.67;;;-1.98;97.61
72909;BME280;61051;62.624;17.950;2023-12-22T03:49:47;97837.22;;;-2.02;98.38
72909;BME280;61051;62.624;17.950;2023-12-22T03:52:17;97839.22;;;-2.05;98.31
72909;BME280;61051;62.624;17.950;2023-12-22T03:54:47;97842.97;;;-2.10;98.50
72909;BME280;61051;62.624;17.950;2023-12-22T03:57:16;97843.39;;;-2.17;98.32
72909;BME280;61051;62.624;17.950;2023-12-22T03:59:45;97843.96;;;-2.11;98.97
72909;BME280;61051;62.624;17.950;2023-12-22T04:02:14;97847.15;;;-2.19;99.23
72909;BME280;61051;62.624;17.950;2023-12-22T04:04:42;97847.79;;;-2.11;98.55
72909;BME280;61051;62.624;17.950;2023-12-22T04:07:11;97848.82;;;-2.19;98.22
72909;BME280;61051;62.624;17.950;2023-12-22T04:09:40;97848.97;;;-2.20;97.91
72909;BME280;61051;62.624;17.950;2023-12-22T04:12:08;97843.22;;;-2.21;98.14
72909;BME280;61051;62.624;17.950;2023-12-22T04:14:37;97845.51;;;-2.09;98.45
72909;BME280;61051;62.624;17.950;2023-12-22T04:17:05;97847.90;;;-2.12;97.75
72909;BME280;61051;62.624;17.950;2023-12-22T04:19:36;97849.07;;;-2.25;98.31
72909;BME280;61051;62.624;17.950;2023-12-22T04:22:04;97849.99;;;-2.13;98.17
72909;BME280;61051;62.624;17.950;2023-12-22T04:24:33;97856.01;;;-2.15;98.15
72909;BME280;61051;62.624;17.950;2023-12-22T04:27:02;97859.59;;;-2.17;97.35
72909;BME280;61051;62.624;17.950;2023-12-22T04:29:30;97860.89;;;-2.07;97.53
72909;BME280;61051;62.624;17.950;2023-12-22T04:31:59;97861.65;;;-2.14;96.73
72909;BME280;61051;62.624;17.950;2023-12-22T04:34:28;97863.26;;;-2.13;96.80
72909;BME280;61051;62.624;17.950;2023-12-22T04:36:57;97863.30;;;-2.08;96.70
72909;BME280;61051;62.624;17.950;2023-12-22T04:39:25;97867.16;;;-2.13;95.69
72909;BME280;61051;62.624;17.950;2023-12-22T04:41:54;97872.14;;;-2.18;95.95
72909;BME280;61051;62.624;17.950;2023-12-22T04:44:23;97868.51;;;-2.16;96.59
72909;BME280;61051;62.624;17.950;2023-12-22T04:46:52;97876.10;;;-2.17;97.02
72909;BME280;61051;62.624;17.950;2023-12-22T04:49:20;97878.25;;;-2.13;97.25
72909;BME280;61051;62.624;17.950;2023-12-22T04:51:49;97876.62;;;-2.13;97.24
72909;BME280;61051;62.624;17.950;2023-12-22T04:54:18;97879.97;;;-2.03;96.75
72909;BME280;61051;62.624;17.950;2023-12-22T04:56:46;97880.50;;;-2.15;96.10
72909;BME280;61051;62.624;17.950;2023-12-22T04:59:15;97883.05;;;-2.05;96.12
72909;BME280;61051;62.624;17.950;2023-12-22T05:04:51;97889.03;;;-2.13;96.20
72909;BME280;61051;62.624;17.950;2023-12-22T05:07:20;97892.39;;;-2.12;96.28
72909;BME280;61051;62.624;17.950;2023-12-22T05:09:48;97896.22;;;-1.98;94.97
72909;BME280;61051;62.624;17.950;2023-12-22T05:12:17;97894.39;;;-1.92;95.27
72909;BME280;61051;62.624;17.950;2023-12-22T05:14:45;97895.27;;;-2.07;95.78
72909;BME280;61051;62.624;17.950;2023-12-22T05:17:14;97895.69;;;-2.08;95.62
72909;BME280;61051;62.624;17.950;2023-12-22T05:19:43;97892.24;;;-2.01;95.82
72909;BME280;61051;62.624;17.950;2023-12-22T05:22:11;97890.42;;;-2.04;96.13
72909;BME280;61051;62.624;17.950;2023-12-22T05:24:40;97885.75;;;-2.03;95.79
72909;BME280;61051;62.624;17.950;2023-12-22T05:27:08;97887.96;;;-1.98;96.23
72909;BME280;61051;62.624;17.950;2023-12-22T05:29:37;97892.93;;;-2.00;95.66
72909;BME280;61051;62.624;17.950;2023-12-22T05:32:06;97893.01;;;-1.97;95.16
72909;BME280;61051;62.624;17.950;2023-12-22T05:34:34;97894.49;;;-1.92;94.86
72909;BME280;61051;62.624;17.950;2023-12-22T05:37:03;97892.59;;;-2.08;95.22
72909;BME280;61051;62.624;17.950;2023-12-22T05:39:31;97892.77;;;-2.01;95.41
72909;BME280;61051;62.624;17.950;2023-12-22T05:42:00;97887.25;;;-2.10;96.04
72909;BME280;61051;62.624;17.950;2023-12-22T05:44:29;97890.74;;;-2.00;95.90
72909;BME280;61051;62.624;17.950;2023-12-22T05:46:58;97898.34;;;-2.06;95.67
72909;BME280;61051;62.624;17.950;2023-12-22T05:49:27;97905.29;;;-2.06;95.97
72909;BME280;61051;62.624;17.950;2023-12-22T05:51:56;97907.34;;;-2.11;95.98
72909;BME280;61051;62.624;17.950;2023-12-22T05:54:25;97910.04;;;-2.01;96.24
72909;BME280;61051;62.624;17.950;2023-12-22T05:56:54;97911.84;;;-2.16;96.23
72909;BME280;61051;62.624;17.950;2023-12-22T05:59:22;97912.53;;;-2.08;96.32
72909;BME280;61051;62.624;17.950;2023-12-22T06:01:53;97918.15;;;-2.09;96.49
72909;BME280;61051;62.624;17.950;2023-12-22T06:04:21;97920.84;;;-2.13;96.03
72909;BME280;61051;62.624;17.950;2023-12-22T06:06:50;97924.42;;;-2.11;96.09
72909;BME280;61051;62.624;17.950;2023-12-22T06:09:19;97926.34;;;-1.97;96.27
72909;BME280;61051;62.624;17.950;2023-12-22T06:11:47;97928.48;;;-1.97;96.41
72909;BME280;61051;62.624;17.950;2023-12-22T06:14:16;97930.35;;;-1.99;96.73
72909;BME280;61051;62.624;17.950;2023-12-22T06:16:44;97935.61;;;-1.86;96.41
72909;BME280;61051;62.624;17.950;2023-12-22T06:19:13;97940.62;;;-2.02;96.03
72909;BME280;61051;62.624;17.950;2023-12-22T06:21:41;97945.33;;;-2.02;95.61
72909;BME280;61051;62.624;17.950;2023-12-22T06:24:10;97941.18;;;-2.05;95.99
72909;BME280;61051;62.624;17.950;2023-12-22T06:26:39;97941.77;;;-2.07;96.15
72909;BME280;61051;62.624;17.950;2023-12-22T06:29:07;97941.66;;;-2.02;96.26
72909;BME280;61051;62.624;17.950;2023-12-22T06:31:36;97946.05;;;-2.06;96.72
72909;BME280;61051;62.624;17.950;2023-12-22T06:34:04;97948.22;;;-1.93;96.47
72909;BME280;61051;62.624;17.950;2023-12-22T06:36:33;97950.72;;;-2.09;96.50
72909;BME280;61051;62.624;17.950;2023-12-22T06:39:02;97952.25;;;-1.98;96.60
72909;BME280;61051;62.624;17.950;2023-12-22T06:41:31;97959.39;;;-2.00;96.23
72909;BME280;61051;62.624;17.950;2023-12-22T06:43:59;97963.23;;;-1.98;96.52
72909;BME280;61051;62.624;17.950;2023-12-22T06:46:29;97960.19;;;-1.87;96.54
72909;BME280;61051;62.624;17.950;2023-12-22T06:48:58;97964.16;;;-1.94;96.00
72909;BME280;61051;62.624;17.950;2023-12-22T06:51:29;97968.25;;;-1.89;95.81
72909;BME280;61051;62.624;17.950;2023-12-22T06:53:59;97971.09;;;-1.81;96.16
72909;BME280;61051;62.624;17.950;2023-12-22T06:56:31;97972.52;;;-1.65;95.19
72909;BME280;61051;62.624;17.950;2023-12-22T06:59:01;97973.35;;;-1.67;94.70
72909;BME280;61051;62.624;17.950;2023-12-22T07:01:30;97978.38;;;-1.68;94.59
72909;BME280;61051;62.624;17.950;2023-12-22T07:04:00;97979.85;;;-1.54;94.33
72909;BME280;61051;62.624;17.950;2023-12-22T07:06:32;97981.34;;;-1.58;94.22
72909;BME280;61051;62.624;17.950;2023-12-22T07:09:34;97985.25;;;-1.62;95.18
72909;BME280;61051;62.624;17.950;2023-12-22T07:12:04;97994.44;;;-1.59;95.00
72909;BME280;61051;62.624;17.950;2023-12-22T07:14:32;97994.06;;;-1.64;95.30
72909;BME280;61051;62.624;17.950;2023-12-22T07:17:01;97994.36;;;-1.56;95.17
72909;BME280;61051;62.624;17.950;2023-12-22T07:19:30;97993.49;;;-1.59;95.75
72909;BME280;61051;62.624;17.950;2023-12-22T07:21:58;97993.34;;;-1.62;95.76
72909;BME280;61051;62.624;17.950;2023-12-22T07:24:27;97996.60;;;-1.65;96.22
72909;BME280;61051;62.624;17.950;2023-12-22T07:26:57;97995.55;;;-1.60;95.66
72909;BME280;61051;62.624;17.950;2023-12-22T07:29:25;97995.58;;;-1.62;95.90
72909;BME280;61051;62.624;17.950;2023-12-22T07:31:54;97999.35;;;-1.57;95.65
72909;BME280;61051;62.624;17.950;2023-12-22T07:34:23;97997.78;;;-1.58;95.36
72909;BME280;61051;62.624;17.950;2023-12-22T07:36:51;98001.50;;;-1.52;94.93
72909;BME280;61051;62.624;17.950;2023-12-22T07:39:20;98000.50;;;-1.52;95.36
72909;BME280;61051;62.624;17.950;2023-12-22T07:41:48;98003.08;;;-1.61;95.84
72909;BME280;61051;62.624;17.950;2023-12-22T07:44:17;98006.00;;;-1.56;95.83
72909;BME280;61051;62.624;17.950;2023-12-22T07:46:56;98006.03;;;-1.62;95.93
72909;BME280;61051;62.624;17.950;2023-12-22T07:49:25;98010.55;;;-1.44;96.27
72909;BME280;61051;62.624;17.950;2023-12-22T07:51:53;98013.78;;;-1.48;96.06
72909;BME280;61051;62.624;17.950;2023-12-22T07:54:22;98010.83;;;-1.46;96.27
72909;BME280;61051;62.624;17.950;2023-12-22T07:56:50;98014.72;;;-1.37;96.62
72909;BME280;61051;62.624;17.950;2023-12-22T07:59:19;98012.76;;;-1.47;96.63
72909;BME280;61051;62.624;17.950;2023-12-22T08:01:47;98018.52;;;-1.54;97.25
72909;BME280;61051;62.624;17.950;2023-12-22T08:04:16;98018.48;;;-1.48;96.38
72909;BME280;61051;62.624;17.950;2023-12-22T08:06:45;98019.10;;;-1.42;96.20
72909;BME280;61051;62.624;17.950;2023-12-22T08:09:13;98019.66;;;-1.51;95.60
72909;BME280;61051;62.624;17.950;2023-12-22T08:11:42;98017.09;;;-1.35;95.06
72909;BME280;61051;62.624;17.950;2023-12-22T08:14:10;98024.43;;;-1.48;95.24
72909;BME280;61051;62.624;17.950;2023-12-22T08:16:39;98025.50;;;-1.40;94.45
72909;BME280;61051;62.624;17.950;2023-12-22T08:23:51;98030.86;;;-1.45;94.00
72909;BME280;61051;62.624;17.950;2023-12-22T08:26:20;98030.63;;;-1.41;94.99
72909;BME280;61051;62.624;17.950;2023-12-22T08:28:48;98033.69;;;-1.41;94.25
72909;BME280;61051;62.624;17.950;2023-12-22T08:31:17;98041.63;;;-1.47;94.69
72909;BME280;61051;62.624;17.950;2023-12-22T08:33:46;98040.38;;;-1.45;94.23
72909;BME280;61051;62.624;17.950;2023-12-22T08:36:14;98038.86;;;-1.61;94.49
72909;BME280;61051;62.624;17.950;2023-12-22T08:38:43;98040.53;;;-1.74;94.65
72909;BME280;61051;62.624;17.950;2023-12-22T08:41:12;98044.84;;;-1.77;95.09
72909;BME280;61051;62.624;17.950;2023-12-22T08:43:40;98042.99;;;-1.79;95.19
72909;BME280;61051;62.624;17.950;2023-12-22T08:46:09;98046.48;;;-1.89;95.22
72909;BME280;61051;62.624;17.950;2023-12-22T08:48:37;98046.48;;;-1.86;94.95
72909;BME280;61051;62.624;17.950;2023-12-22T08:51:06;98048.58;;;-1.90;95.04
72909;BME280;61051;62.624;17.950;2023-12-22T08:53:35;98048.01;;;-1.90;95.72
72909;BME280;61051;62.624;17.950;2023-12-22T08:56:04;98049.34;;;-1.83;95.42
72909;BME280;61051;62.624;17.950;2023-12-22T08:58:32;98050.96;;;-1.79;95.33
72909;BME280;61051;62.624;17.950;2023-12-22T09:01:01;98049.91;;;-1.86;95.36
72909;BME280;61051;62.624;17.950;2023-12-22T09:03:33;98049.11;;;-1.83;94.82
72909;BME280;61051;62.624;17.950;2023-12-22T09:06:02;98051.85;;;-1.88;95.37
72909;BME280;61051;62.624;17.950;2023-12-22T09:08:30;98052.09;;;-1.85;94.72
72909;BME280;61051;62.624;17.950;2023-12-22T09:10:59;98049.36;;;-1.88;94.75
72909;BME280;61051;62.624;17.950;2023-12-22T09:13:29;98046.99;;;-1.86;94.63
72909;BME280;61051;62.624;17.950;2023-12-22T09:15:58;98047.04;;;-1.79;94.87
72909;BME280;61051;62.624;17.950;2023-12-22T09:18:27;98043.57;;;-1.84;94.46
72909;BME280;61051;62.624;17.950;2023-12-22T09:20:55;98047.17;;;-1.83;94.68
72909;BME280;61051;62.624;17.950;2023-12-22T09:23:23;98046.46;;;-1.79;94.70
72909;BME280;61051;62.624;17.950;2023-12-22T09:25:52;98041.95;;;-1.83;94.35
72909;BME280;61051;62.624;17.950;2023-12-22T09:28:21;98039.52;;;-1.74;94.55
72909;BME280;61051;62.624;17.950;2023-12-22T09:30:49;98034.81;;;-1.84;94.12
72909;BME280;61051;62.624;17.950;2023-12-22T09:33:18;98037.40;;;-1.70;94.12
72909;BME280;61051;62.624;17.950;2023-12-22T09:35:46;98037.46;;;-1.68;94.17
72909;BME280;61051;62.624;17.950;2023-12-22T09:38:15;98034.53;;;-1.58;93.52
72909;BME280;61051;62.624;17.950;2023-12-22T09:40:43;98034.37;;;-1.64;93.26
72909;BME280;61051;62.624;17.950;2023-12-22T09:43:13;98029.84;;;-1.56;93.47
72909;BME280;61051;62.624;17.950;2023-12-22T09:45:43;98035.23;;;-1.54;92.82
72909;BME280;61051;62.624;17.950;2023-12-22T09:48:12;98034.66;;;-1.76;93.05
72909;BME280;61051;62.624;17.950;2023-12-22T09:50:42;98033.53;;;-1.59;92.98
72909;BME280;61051;62.624;17.950;2023-12-22T09:53:13;98038.33;;;-1.64;93.14
72909;BME280;61051;62.624;17.950;2023-12-22T09:55:44;98036.45;;;-1.69;93.62
72909;BME280;61051;62.624;17.950;2023-12-22T09:58:14;98037.57;;;-1.73;93.44
72909;BME280;61051;62.624;17.950;2023-12-22T10:00:43;98041.65;;;-1.76;93.64
72909;BME280;61051;62.624;17.950;2023-12-22T10:03:15;98039.02;;;-1.73;94.10
72909;BME280;61051;62.624;17.950;2023-12-22T10:05:45;98044.93;;;-1.85;94.29
72909;BME280;61051;62.624;17.950;2023-12-22T10:08:14;98042.71;;;-1.77;94.40
72909;BME280;61051;62.624;17.950;2023-12-22T10:10:43;98044.00;;;-1.73;94.23
72909;BME280;61051;62.624;17.950;2023-12-22T10:13:11;98046.13;;;-1.81;94.32
72909;BME280;61051;62.624;17.950;2023-12-22T10:15:40;98040.31;;;-1.74;94.57
72909;BME280;61051;62.624;17.950;2023-12-22T10:18:10;98048.21;;;-1.73;94.07
72909;BME280;61051;62.624;17.950;2023-12-22T10:20:39;98048.55;;;-1.67;94.10
72909;BME280;61051;62.624;17.950;2023-12-22T10:23:07;98052.07;;;-1.73;94.22
72909;BME280;61051;62.624;17.950;2023-12-22T10:25:36;98057.16;;;-1.66;93.98
72909;BME280;61051;62.624;17.950;2023-12-22T10:28:05;98055.46;;;-1.73;93.70
72909;BME280;61051;62.624;17.950;2023-12-22T10:30:33;98056.69;;;-1.69;93.97
72909;BME280;61051;62.624;17.950;2023-12-22T10:33:04;98057.06;;;-1.49;93.59
72909;BME280;61051;62.624;17.950;2023-12-22T10:35:32;98062.69;;;-1.68;94.09
72909;BME280;61051;62.624;17.950;2023-12-22T10:38:01;98056.04;;;-1.62;94.39
72909;BME280;61051;62.624;17.950;2023-12-22T10:40:30;98054.69;;;-1.68;94.76
72909;BME280;61051;62.624;17.950;2023-12-22T10:42:58;98056.59;;;-1.57;94.91
72909;BME280;61051;62.624;17.950;2023-12-22T10:45:29;98061.26;;;-1.68;95.14
72909;BME280;61051;62.624;17.950;2023-12-22T10:47:59;98057.82;;;-1.68;95.23
72909;BME280;61051;62.624;17.950;2023-12-22T10:50:29;98061.82;;;-1.63;95.66
72909;BME280;61051;62.624;17.950;2023-12-22T10:52:58;98067.40;;;-1.66;95.95
72909;BME280;61051;62.624;17.950;2023-12-22T10:55:27;98065.75;;;-1.60;96.63
72909;BME280;61051;62.624;17.950;2023-12-22T10:58:01;98063.41;;;-1.54;96.73
72909;BME280;61051;62.624;17.950;2023-12-22T11:03:30;98056.77;;;-1.63;97.63
72909;BME280;61051;62.624;17.950;2023-12-22T11:06:04;98056.36;;;-1.43;98.01
72909;BME280;61051;62.624;17.950;2023-12-22T11:08:36;98057.00;;;-1.52;98.57
72909;BME280;61051;62.624;17.950;2023-12-22T11:11:10;98051.57;;;-1.54;98.48
72909;BME280;61051;62.624;17.950;2023-12-22T11:13:41;98049.66;;;-1.56;98.29
72909;BME280;61051;62.624;17.950;2023-12-22T11:16:12;98052.49;;;-1.54;98.38
72909;BME280;61051;62.624;17.950;2023-12-22T11:18:43;98054.76;;;-1.61;99.00
72909;BME280;61051;62.624;17.950;2023-12-22T11:21:12;98059.95;;;-1.50;98.89
72909;BME280;61051;62.624;17.950;2023-12-22T11:23:43;98060.63;;;-1.47;98.55
72909;BME280;61051;62.624;17.950;2023-12-22T11:26:13;98056.01;;;-1.49;98.79
72909;BME280;61051;62.624;17.950;2023-12-22T11:28:46;98055.40;;;-1.50;99.77
72909;BME280;61051;62.624;17.950;2023-12-22T11:31:14;98061.38;;;-1.49;100.00
72909;BME280;61051;62.624;17.950;2023-12-22T11:33:44;98058.13;;;-1.60;100.00
72909;BME280;61051;62.624;17.950;2023-12-22T11:36:13;98064.02;;;-1.73;100.00
72909;BME280;61051;62.624;17.950;2023-12-22T11:38:44;98063.25;;;-1.76;100.00
72909;BME280;61051;62.624;17.950;2023-12-22T11:41:18;98066.62;;;-1.72;100.00
72909;BME280;61051;62.624;17.950;2023-12-22T11:43:48;98065.89;;;-1.68;100.00
72909;BME280;61051;62.624;17.950;2023-12-22T11:46:18;98067.88;;;-1.76;99.86
72909;BME280;61051;62.624;17.950;2023-12-22T11:48:47;98069.83;;;-1.81;100.00
72909;BME280;61051;62.624;17.950;2023-12-22T11:51:17;98068.12;;;-1.77;100.00
72909;BME280;61051;62.624;17.950;2023-12-22T11:53:47;98062.09;;;-1.66;100.00
72909;BME280;61051;62.624;17.950;2023-12-22T11:56:15;98065.56;;;-1.79;99.70
72909;BME280;61051;62.624;17.950;2023-12-22T11:58:46;98065.23;;;-1.71;99.40
72909;BME280;61051;62.624;17.950;2023-12-22T12:01:15;98066.56;;;-1.72;99.40
72909;BME280;61051;62.624;17.950;2023-12-22T12:03:49;98064.67;;;-1.73;99.98
72909;BME280;61051;62.624;17.950;2023-12-22T12:06:31;98062.10;;;-1.52;100.00
72909;BME280;61051;62.624;17.950;2023-12-22T12:09:00;98063.42;;;-1.46;100.00
72909;BME280;61051;62.624;17.950;2023-12-22T12:12:37;98066.96;;;-1.53;99.67
72909;BME280;61051;62.624;17.950;2023-12-22T12:15:10;98067.67;;;-1.39;98.96
72909;BME280;61051;62.624;17.950;2023-12-22T12:17:42;98072.79;;;-1.43;98.98
72909;BME280;61051;62.624;17.950;2023-12-22T12:20:11;98067.20;;;-1.31;98.72
72909;BME280;61051;62.624;17.950;2023-12-22T12:22:43;98066.02;;;-1.40;98.27
72909;BME280;61051;62.624;17.950;2023-12-22T12:25:12;98064.09;;;-1.33;97.72
72909;BME280;61051;62.624;17.950;2023-12-22T12:27:41;98068.91;;;-1.38;97.41
72909;BME280;61051;62.624;17.950;2023-12-22T12:30:12;98061.97;;;-1.24;97.02
72909;BME280;61051;62.624;17.950;2023-12-22T12:32:43;98060.81;;;-1.28;96.51
72909;BME280;61051;62.624;17.950;2023-12-22T12:35:12;98065.84;;;-1.26;96.02
72909;BME280;61051;62.624;17.950;2023-12-22T12:37:40;98068.06;;;-1.31;95.90
72909;BME280;61051;62.624;17.950;2023-12-22T12:40:14;98071.60;;;-1.17;95.62
72909;BME280;61051;62.624;17.950;2023-12-22T12:42:45;98072.70;;;-1.30;94.87
72909;BME280;61051;62.624;17.950;2023-12-22T12:45:13;98074.97;;;-1.45;95.54
72909;BME280;61051;62.624;17.950;2023-12-22T12:47:41;98077.44;;;-1.56;95.78
72909;BME280;61051;62.624;17.950;2023-12-22T12:50:11;98080.02;;;-1.50;95.97
72909;BME280;61051;62.624;17.950;2023-12-22T12:52:40;98084.43;;;-1.58;95.21
72909;BME280;61051;62.624;17.950;2023-12-22T12:55:11;98078.42;;;-1.60;94.88
72909;BME280;61051;62.624;17.950;2023-12-22T12:57:39;98087.74;;;-1.63;94.48
72909;BME280;61051;62.624;17.950;2023-12-22T13:00:10;98086.06;;;-1.48;94.21
72909;BME280;61051;62.624;17.950;2023-12-22T13:02:38;98088.54;;;-1.49;94.00
72909;BME280;61051;62.624;17.950;2023-12-22T13:05:07;98082.44;;;-1.50;93.06
72909;BME280;61051;62.624;17.950;2023-12-22T13:07:35;98084.25;;;-1.58;93.00
72909;BME280;61051;62.624;17.950;2023-12-22T13:10:05;98086.78;;;-1.62;93.45
72909;BME280;61051;62.624;17.950;2023-12-22T13:12:33;98081.84;;;-1.70;93.34